createdAt,value
2022-10-13T00:00:11.022Z,99358.31
2022-10-13T00:02:37.380Z,99366.63
2022-10-13T00:05:04.015Z,99365.63
2022-10-13T00:07:30.437Z,99368.28
2022-10-13T00:09:56.799Z,99360.63
2022-10-13T00:12:23.599Z,99364.31
2022-10-13T00:14:50.524Z,99366.63
2022-10-13T00:17:16.937Z,99362.81
2022-10-13T00:19:43.445Z,99357.50
2022-10-13T00:22:09.938Z,99372.78
2022-10-13T00:24:36.306Z,99373.94
2022-10-13T00:27:02.777Z,99379.09
2022-10-13T00:29:31.041Z,99376.94
2022-10-13T00:31:57.658Z,99375.28
2022-10-13T00:34:24.003Z,99373.44
2022-10-13T00:36:50.359Z,99383.75
2022-10-13T00:39:16.993Z,99370.94
2022-10-13T00:41:44.578Z,99376.94
2022-10-13T00:44:48.255Z,99377.59
2022-10-13T00:47:14.704Z,99382.59
2022-10-13T00:49:41.099Z,99376.63
2022-10-13T00:52:07.663Z,99386.44
2022-10-13T00:54:34.365Z,99381.09
2022-10-13T00:57:03.054Z,99380.59
2022-10-13T00:59:29.870Z,99389.25
2022-10-13T01:01:59.305Z,99388.22
2022-10-13T01:04:29.358Z,99384.41
2022-10-13T01:06:56.818Z,99380.78
2022-10-13T01:09:23.508Z,99387.75
2022-10-13T01:12:25.220Z,99386.09
2022-10-13T01:15:23.767Z,99384.41
2022-10-13T01:17:53.202Z,99711.47
2022-10-13T01:20:37.616Z,99834.00
2022-10-13T01:23:35.903Z,99822.38
2022-10-13T01:26:39.939Z,99816.75
2022-10-13T01:29:45.463Z,99855.88
2022-10-13T01:32:25.032Z,99848.19
2022-10-13T01:35:05.888Z,99848.28
2022-10-13T01:37:45.888Z,99853.28
2022-10-13T01:40:26.349Z,99844.41
2022-10-13T01:43:08.488Z,99842.88
2022-10-13T01:45:40.209Z,99839.06
2022-10-13T01:48:10.745Z,99835.09
2022-10-13T01:50:40.524Z,99832.00
2022-10-13T01:53:08.308Z,99828.41
2022-10-13T01:55:34.691Z,99818.72
2022-10-13T01:58:02.314Z,99813.72
2022-10-13T02:00:39.950Z,99810.41
2022-10-13T02:03:18.099Z,99812.56
2022-10-13T02:06:02.990Z,99814.09
2022-10-13T02:08:57.790Z,99822.13
2022-10-13T02:11:24.834Z,99818.66
2022-10-13T02:14:01.619Z,99826.03
2022-10-13T02:16:32.531Z,99818.53
2022-10-13T02:18:59.251Z,99812.19
2022-10-13T02:21:26.308Z,99804.22
2022-10-13T02:23:54.903Z,99810.41
2022-10-13T02:26:26.710Z,99812.44
2022-10-13T02:28:53.261Z,99812.94
2022-10-13T02:31:19.562Z,99804.66
2022-10-13T02:33:46.062Z,99812.47
2022-10-13T02:36:12.629Z,99815.63
2022-10-13T02:38:41.767Z,99810.63
2022-10-13T02:41:08.227Z,99800.78
2022-10-13T02:43:34.780Z,99794.25
2022-10-13T02:46:01.125Z,99791.41
2022-10-13T02:48:27.662Z,99800.09
2022-10-13T02:50:55.218Z,99801.06
2022-10-13T02:53:21.687Z,99799.25
2022-10-13T02:55:48.052Z,99804.41
2022-10-13T02:58:17.496Z,99799.91
2022-10-13T03:00:43.837Z,99802.25
2022-10-13T03:03:12.277Z,99803.59
2022-10-13T03:05:38.638Z,99795.91
2022-10-13T03:08:05.563Z,99796.78
2022-10-13T03:10:31.976Z,99804.91
2022-10-13T03:12:58.672Z,99799.59
2022-10-13T03:15:25.925Z,99805.28
2022-10-13T03:17:52.647Z,99799.97
2022-10-13T03:20:19.221Z,99798.94
2022-10-13T03:22:49.573Z,99794.25
2022-10-13T03:25:16.435Z,99787.59
2022-10-13T03:27:49.205Z,99792.09
2022-10-13T03:30:15.865Z,99793.56
2022-10-13T03:32:44.412Z,99782.22
2022-10-13T03:35:10.720Z,99783.75
2022-10-13T03:37:37.228Z,99781.91
2022-10-13T03:40:04.093Z,99788.22
2022-10-13T03:42:30.761Z,99776.91
2022-10-13T03:44:57.443Z,99795.53
2022-10-13T03:47:24.236Z,99780.06
2022-10-13T03:49:51.808Z,99772.91
2022-10-13T03:52:18.635Z,99768.88
2022-10-13T03:54:46.517Z,99761.88
2022-10-13T03:57:13.061Z,99759.91
2022-10-13T03:59:41.591Z,99766.22
2022-10-13T04:02:09.446Z,99767.06
2022-10-13T04:04:38.300Z,99772.22
2022-10-13T04:07:05.341Z,99770.75
2022-10-13T04:09:31.860Z,99770.06
2022-10-13T04:11:58.305Z,99764.72
2022-10-13T04:14:27.266Z,99765.59
2022-10-13T04:16:53.726Z,99767.63
2022-10-13T04:19:20.312Z,99763.78
2022-10-13T04:21:53.211Z,99759.47
2022-10-13T04:24:19.562Z,99760.97
2022-10-13T04:26:46.107Z,99758.81
2022-10-13T04:29:12.920Z,99758.31
2022-10-13T04:31:40.574Z,99757.34
2022-10-13T04:34:07.012Z,99750.19
2022-10-13T04:36:33.633Z,99747.34
2022-10-13T04:39:00.217Z,99741.03
2022-10-13T04:41:26.960Z,99736.56
2022-10-13T04:43:55.233Z,99738.72
2022-10-13T04:46:26.847Z,99735.72
2022-10-13T04:48:53.423Z,99749.72
2022-10-13T04:51:22.627Z,99747.59
2022-10-13T04:53:53.526Z,99748.06
2022-10-13T04:56:19.920Z,99749.53
2022-10-13T04:58:46.837Z,99751.06
2022-10-13T05:01:21.379Z,99744.72
2022-10-13T05:04:01.549Z,99747.38
2022-10-13T05:06:33.998Z,99751.19
2022-10-13T05:09:00.929Z,99738.22
2022-10-13T05:11:28.369Z,99743.03
2022-10-13T05:13:56.154Z,99740.38
2022-10-13T05:16:24.695Z,99741.19
2022-10-13T05:18:53.249Z,99741.19
2022-10-13T05:21:22.991Z,99740.69
2022-10-13T05:23:49.696Z,99739.03
2022-10-13T05:26:18.416Z,99740.69
2022-10-13T05:28:45.324Z,99747.00
2022-10-13T05:31:20.268Z,99761.66
2022-10-13T05:33:48.172Z,99760.66
2022-10-13T05:36:18.343Z,99762.66
2022-10-13T05:38:45.468Z,99762.34
2022-10-13T05:41:13.523Z,99756.53
2022-10-13T05:43:42.536Z,99760.88
2022-10-13T05:46:10.011Z,99750.72
2022-10-13T05:48:37.790Z,99753.09
2022-10-13T05:51:12.240Z,99752.59
2022-10-13T05:53:46.748Z,99752.13
2022-10-13T05:56:29.899Z,99754.81
2022-10-13T05:59:01.299Z,99742.47
2022-10-13T06:01:32.800Z,99743.50
2022-10-13T06:04:05.418Z,99746.34
2022-10-13T06:06:32.157Z,99748.66
2022-10-13T06:08:59.887Z,99744.16
2022-10-13T06:11:26.454Z,99715.88
2022-10-13T06:13:53.027Z,99710.84
2022-10-13T06:16:19.896Z,99703.38
2022-10-13T06:18:47.491Z,99682.84
2022-10-13T06:21:13.938Z,99685.88
2022-10-13T06:23:40.300Z,99687.56
2022-10-13T06:26:08.158Z,99685.38
2022-10-13T06:28:35.729Z,99683.88
2022-10-13T06:31:05.385Z,99602.44
2022-10-13T06:33:32.148Z,99577.94
2022-10-13T06:36:05.896Z,99573.91
2022-10-13T06:38:33.718Z,99262.63
2022-10-13T06:41:05.316Z,99268.47
2022-10-13T06:43:39.663Z,99265.44
2022-10-13T06:46:06.837Z,99264.38
2022-10-13T06:48:33.406Z,99268.38
2022-10-13T06:51:08.536Z,99273.72
2022-10-13T06:53:36.567Z,99261.75
2022-10-13T06:56:05.739Z,99272.91
2022-10-13T06:58:32.234Z,99269.91
2022-10-13T07:00:58.711Z,99268.72
2022-10-13T07:03:25.930Z,99267.75
2022-10-13T07:05:52.981Z,99270.97
2022-10-13T07:08:19.761Z,99260.47
2022-10-13T07:10:46.286Z,99259.66
2022-10-13T07:13:12.764Z,99250.38
2022-10-13T07:15:41.910Z,99245.44
2022-10-13T07:18:08.501Z,99246.75
2022-10-13T07:20:35.542Z,99245.38
2022-10-13T07:23:02.549Z,99243.00
2022-10-13T07:25:29.087Z,99235.97
2022-10-13T07:27:55.861Z,99239.06
2022-10-13T07:30:22.813Z,99240.69
2022-10-13T07:32:49.559Z,99236.88
2022-10-13T07:35:16.378Z,99237.22
2022-10-13T07:37:43.570Z,99238.69
2022-10-13T07:40:11.218Z,99231.22
2022-10-13T07:42:41.848Z,99232.84
2022-10-13T07:45:10.024Z,99239.25
2022-10-13T07:47:36.374Z,99243.28
2022-10-13T07:50:03.210Z,99239.63
2022-10-13T07:52:29.823Z,99248.19
2022-10-13T07:54:57.000Z,99232.63
2022-10-13T07:57:26.344Z,99226.50
2022-10-13T07:59:52.877Z,99224.31
2022-10-13T08:02:19.680Z,99222.00
2022-10-13T08:04:47.091Z,99221.06
2022-10-13T08:07:13.494Z,99223.00
2022-10-13T08:09:42.471Z,99218.34
2022-10-13T08:12:09.138Z,99224.59
2022-10-13T08:14:36.283Z,99215.41
2022-10-13T08:17:02.933Z,99205.78
2022-10-13T08:19:29.450Z,99200.66
2022-10-13T08:21:58.705Z,99199.19
2022-10-13T08:24:25.823Z,99200.91
2022-10-13T08:26:52.440Z,99193.28
2022-10-13T08:29:23.405Z,99190.38
2022-10-13T08:31:53.095Z,99185.25
2022-10-13T08:34:20.343Z,99182.75
2022-10-13T08:36:47.137Z,99183.16
2022-10-13T08:39:14.053Z,99181.94
2022-10-13T08:41:43.129Z,99184.22
2022-10-13T08:45:06.270Z,99181.06
2022-10-13T08:47:30.136Z,99174.47
2022-10-13T08:50:01.969Z,99168.28
2022-10-13T08:53:02.869Z,99162.53
2022-10-13T08:55:39.706Z,99168.91
2022-10-13T08:58:21.927Z,99166.66
2022-10-13T09:00:48.721Z,99165.44
2022-10-13T09:03:25.353Z,99162.56
2022-10-13T09:06:22.711Z,99163.97
2022-10-13T09:08:59.713Z,99163.13
2022-10-13T09:11:28.818Z,99160.84
2022-10-13T09:13:59.386Z,99157.13
2022-10-13T09:16:36.968Z,99149.47
2022-10-13T09:19:29.617Z,99147.94
2022-10-13T09:21:58.915Z,99145.31
2022-10-13T09:24:26.938Z,99143.16
2022-10-13T09:27:06.805Z,99147.22
2022-10-13T09:29:33.330Z,99148.34
2022-10-13T09:32:35.298Z,99148.09
2022-10-13T09:35:20.661Z,99146.59
2022-10-13T09:38:02.535Z,99149.09
2022-10-13T09:40:29.131Z,99145.69
2022-10-13T09:42:59.523Z,99149.25
2022-10-13T09:45:27.582Z,99142.94
2022-10-13T09:48:00.401Z,99140.75
2022-10-13T09:50:29.578Z,99145.06
2022-10-13T09:53:32.517Z,99148.72
2022-10-13T09:56:22.021Z,99137.75
2022-10-13T09:59:02.205Z,99138.13
2022-10-13T10:01:37.088Z,99143.50
2022-10-13T10:04:11.054Z,99136.63
2022-10-13T10:06:40.527Z,99140.00
2022-10-13T10:09:18.454Z,99138.25
2022-10-13T10:11:50.376Z,99136.47
2022-10-13T10:14:25.883Z,99141.03
2022-10-13T10:17:15.801Z,99142.75
2022-10-13T10:20:06.841Z,99144.94
2022-10-13T10:22:40.896Z,99146.25
2022-10-13T10:25:19.483Z,99146.72
2022-10-13T10:28:10.746Z,99142.13
2022-10-13T10:30:55.195Z,99139.75
2022-10-13T10:34:04.362Z,99129.16
2022-10-13T10:36:33.626Z,99125.34
2022-10-13T10:39:27.026Z,99123.41
2022-10-13T10:42:07.662Z,99130.34
2022-10-13T10:44:41.272Z,99119.06
2022-10-13T10:47:23.659Z,99109.19
2022-10-13T10:49:58.466Z,99114.38
2022-10-13T10:52:37.881Z,99114.69
2022-10-13T10:55:30.133Z,99114.22
2022-10-13T10:58:46.934Z,99111.94
2022-10-13T11:01:37.593Z,99106.31
2022-10-13T11:04:07.337Z,99096.19
2022-10-13T11:06:35.988Z,99094.88
2022-10-13T11:09:04.961Z,99088.81
2022-10-13T11:11:37.547Z,99077.50
2022-10-13T11:14:07.464Z,99078.69
2022-10-13T11:16:39.977Z,99077.78
2022-10-13T11:19:29.827Z,99063.50
2022-10-13T11:21:59.021Z,99055.44
2022-10-13T11:24:34.460Z,99053.09
2022-10-13T11:27:23.536Z,99058.50
2022-10-13T11:29:58.886Z,99063.88
2022-10-13T11:32:28.670Z,99051.75
2022-10-13T11:35:07.241Z,99046.34
2022-10-13T11:38:06.677Z,99045.25
2022-10-13T11:40:58.485Z,99042.50
2022-10-13T11:43:47.932Z,99031.94
2022-10-13T11:46:33.675Z,99034.47
2022-10-13T11:49:21.435Z,99044.03
2022-10-13T11:52:25.458Z,99026.81
2022-10-13T11:54:57.303Z,99021.28
2022-10-13T11:57:26.895Z,99025.63
2022-10-13T11:59:58.215Z,99012.84
2022-10-13T12:02:26.861Z,99019.91
2022-10-13T12:05:21.434Z,99019.63
2022-10-13T12:07:56.292Z,99019.56
2022-10-13T12:10:33.224Z,99013.25
2022-10-13T12:13:00.476Z,99005.41
2022-10-13T12:15:39.550Z,99003.53
2022-10-13T12:18:29.370Z,98995.38
2022-10-13T12:21:01.377Z,98993.97
2022-10-13T12:23:32.803Z,98995.44
2022-10-13T12:26:03.647Z,98989.22
2022-10-13T12:28:52.881Z,98991.72
2022-10-13T12:31:27.777Z,98984.00
2022-10-13T12:34:02.035Z,98981.09
2022-10-13T12:36:32.197Z,98972.28
2022-10-13T12:39:09.058Z,98971.84
2022-10-13T12:41:38.946Z,98968.34
2022-10-13T12:44:07.855Z,98957.69
2022-10-13T12:46:44.569Z,98965.78
2022-10-13T12:49:17.324Z,98960.22
2022-10-13T12:51:51.770Z,98953.91
2022-10-13T12:54:21.801Z,98954.59
2022-10-13T12:56:53.782Z,98960.25
2022-10-13T12:59:24.712Z,98949.44
2022-10-13T13:02:03.916Z,98935.72
2022-10-13T13:04:39.850Z,98940.66
2022-10-13T13:07:25.226Z,98934.31
2022-10-13T13:10:15.802Z,98926.69
2022-10-13T13:12:44.354Z,98929.06
2022-10-13T13:15:25.895Z,98925.84
2022-10-13T13:17:58.670Z,98934.66
2022-10-13T13:20:32.420Z,98934.53
2022-10-13T13:22:59.953Z,98929.25
2022-10-13T13:25:26.868Z,98924.09
2022-10-13T13:27:55.354Z,98929.16
2022-10-13T13:30:23.932Z,98923.06
2022-10-13T13:32:51.019Z,98926.34
2022-10-13T13:35:18.544Z,98931.34
2022-10-13T13:37:53.741Z,98925.13
2022-10-13T13:40:22.907Z,98932.75
2022-10-13T13:42:49.729Z,98927.94
2022-10-13T13:45:19.095Z,98933.47
2022-10-13T13:47:47.289Z,98921.88
2022-10-13T13:50:17.534Z,98922.00
2022-10-13T13:52:44.162Z,98926.19
2022-10-13T13:55:10.830Z,98931.16
2022-10-13T13:57:37.214Z,98934.19
2022-10-13T14:00:06.731Z,98931.72
2022-10-13T14:02:33.186Z,98929.75
2022-10-13T14:04:59.685Z,98929.84
2022-10-13T14:07:27.313Z,98934.63
2022-10-13T14:09:57.837Z,98925.97
2022-10-13T14:12:30.556Z,98932.53
2022-10-13T14:14:57.214Z,98928.00
2022-10-13T14:17:23.872Z,98926.31
2022-10-13T14:19:50.588Z,98924.94
2022-10-13T14:22:20.273Z,98923.88
2022-10-13T14:24:47.258Z,98903.56
2022-10-13T14:27:15.970Z,98914.16
2022-10-13T14:29:42.498Z,98914.63
2022-10-13T14:32:09.636Z,98908.97
2022-10-13T14:34:36.358Z,98907.56
2022-10-13T14:37:02.773Z,98901.72
2022-10-13T14:39:29.316Z,98897.84
2022-10-13T14:41:56.229Z,98903.72
2022-10-13T14:44:23.057Z,98900.06
2022-10-13T14:46:49.735Z,98897.03
2022-10-13T14:49:16.350Z,98902.88
2022-10-13T14:51:43.150Z,98895.34
2022-10-13T14:54:09.841Z,98899.72
2022-10-13T14:56:36.363Z,98898.31
2022-10-13T14:59:05.835Z,98899.50
2022-10-13T15:01:32.614Z,98910.38
2022-10-13T15:04:00.422Z,98909.06
2022-10-13T15:06:28.244Z,98897.56
2022-10-13T15:08:55.249Z,98901.81
2022-10-13T15:11:22.783Z,98902.03
2022-10-13T15:13:49.837Z,98896.53
2022-10-13T15:16:19.577Z,98895.56
2022-10-13T15:18:46.117Z,98891.72
2022-10-13T15:21:13.095Z,98894.25
2022-10-13T15:23:40.237Z,98892.03
2022-10-13T15:26:07.502Z,98901.19
2022-10-13T15:28:38.268Z,98902.44
2022-10-13T15:31:05.551Z,98896.81
2022-10-13T15:33:33.620Z,98904.44
2022-10-13T15:36:00.798Z,98898.84
2022-10-13T15:38:27.739Z,98899.19
2022-10-13T15:40:59.795Z,98904.91
2022-10-13T15:43:27.454Z,98905.59
2022-10-13T15:46:14.962Z,98900.06
2022-10-13T15:48:41.900Z,98896.38
2022-10-13T15:51:19.474Z,98895.31
2022-10-13T15:53:47.686Z,98903.72
2022-10-13T15:56:15.179Z,98909.53
2022-10-13T15:58:42.144Z,98913.31
2022-10-13T16:01:10.857Z,98909.19
2022-10-13T16:03:37.799Z,98908.38
2022-10-13T16:06:06.630Z,98907.75
2022-10-13T16:08:36.732Z,98918.16
2022-10-13T16:11:08.127Z,98929.41
2022-10-13T16:13:37.828Z,98926.94
2022-10-13T16:16:08.039Z,98919.97
2022-10-13T16:18:39.831Z,98930.63
2022-10-13T16:21:18.850Z,98935.84
2022-10-13T16:23:47.264Z,98943.56
2022-10-13T16:26:14.966Z,98952.28
2022-10-13T16:28:41.763Z,98949.03
2022-10-13T16:31:11.494Z,98948.66
2022-10-13T16:33:40.451Z,98953.25
2022-10-13T16:36:19.871Z,98955.59
2022-10-13T16:38:47.180Z,98952.28
2022-10-13T16:41:19.287Z,98952.28
2022-10-13T16:43:46.567Z,98951.53
2022-10-13T16:46:15.777Z,98941.91
2022-10-13T16:48:43.530Z,98945.03
2022-10-13T16:51:14.680Z,98947.78
2022-10-13T16:53:41.461Z,98959.81
2022-10-13T16:56:09.207Z,98963.97
2022-10-13T16:58:36.722Z,98975.97
2022-10-13T17:01:05.570Z,98978.25
2022-10-13T17:03:33.562Z,98972.50
2022-10-13T17:06:00.680Z,98981.25
2022-10-13T17:08:27.145Z,98983.56
2022-10-13T17:10:57.968Z,98981.75
2022-10-13T17:13:24.946Z,98975.56
2022-10-13T17:15:52.737Z,98972.94
2022-10-13T17:18:19.877Z,98969.47
2022-10-13T17:21:04.557Z,98969.09
2022-10-13T17:23:31.958Z,98970.16
2022-10-13T17:26:07.189Z,98973.28
2022-10-13T17:28:36.704Z,98977.25
2022-10-13T17:31:09.515Z,98968.63
2022-10-13T17:33:37.552Z,98981.66
2022-10-13T17:36:11.078Z,98974.47
2022-10-13T17:38:38.584Z,98973.22
2022-10-13T17:41:07.530Z,98967.66
2022-10-13T17:43:35.512Z,98980.50
2022-10-13T17:49:01.237Z,98983.63
2022-10-13T17:51:28.724Z,98984.66
2022-10-13T17:53:55.835Z,98987.34
2022-10-13T17:56:24.522Z,98983.66
2022-10-13T17:58:52.054Z,98987.81
2022-10-13T18:01:22.029Z,98992.75
2022-10-13T18:03:50.928Z,98993.22
2022-10-13T18:06:22.929Z,98996.09
2022-10-13T18:08:50.227Z,99006.84
2022-10-13T18:11:18.868Z,98998.16
2022-10-13T18:13:45.771Z,99012.63
2022-10-13T18:16:21.710Z,99010.16
2022-10-13T18:18:49.670Z,99012.22
2022-10-13T18:21:21.115Z,99017.59
2022-10-13T18:23:47.860Z,99018.84
2022-10-13T18:26:19.445Z,99009.53
2022-10-13T18:28:47.796Z,99014.09
2022-10-13T18:31:16.960Z,99016.97
2022-10-13T18:33:44.072Z,99012.03
2022-10-13T18:36:28.880Z,99011.63
2022-10-13T18:39:01.647Z,99015.75
2022-10-13T18:41:28.216Z,99014.94
2022-10-13T18:43:55.256Z,99018.88
2022-10-13T18:46:21.888Z,99007.72
2022-10-13T18:48:48.361Z,99010.19
2022-10-13T18:51:17.107Z,99005.66
2022-10-13T18:53:45.335Z,99003.78
2022-10-13T18:56:18.184Z,99007.91
2022-10-13T18:58:45.411Z,99005.25
2022-10-13T19:01:14.676Z,98999.06
2022-10-13T19:03:41.984Z,99003.81
2022-10-13T19:06:10.764Z,98992.06
2022-10-13T19:08:37.583Z,98996.00
2022-10-13T19:11:17.796Z,98996.59
2022-10-13T19:13:45.486Z,98994.94
2022-10-13T19:16:13.888Z,99003.81
2022-10-13T19:18:41.612Z,98997.00
2022-10-13T19:21:08.948Z,98999.50
2022-10-13T19:23:35.785Z,99000.09
2022-10-13T19:26:14.634Z,99000.53
2022-10-13T19:28:43.209Z,99004.88
2022-10-13T19:31:12.673Z,99005.28
2022-10-13T19:33:44.389Z,99005.06
2022-10-13T19:36:20.032Z,99480.50
2022-10-13T19:38:55.268Z,99477.00
2022-10-13T19:41:22.702Z,99479.88
2022-10-13T19:43:50.272Z,99478.22
2022-10-13T19:46:17.146Z,99521.53
2022-10-13T19:48:43.643Z,99517.00
2022-10-13T19:51:11.042Z,99504.81
2022-10-13T19:53:39.340Z,99511.19
2022-10-13T19:56:06.751Z,99508.69
2022-10-13T19:58:34.402Z,99504.16
2022-10-13T20:01:09.862Z,99515.91
2022-10-13T20:03:36.375Z,99515.31
2022-10-13T20:06:04.889Z,99513.44
2022-10-13T20:08:31.831Z,99512.63
2022-10-13T20:10:58.659Z,99518.00
2022-10-13T20:13:28.360Z,99519.59
2022-10-13T20:15:54.721Z,99515.00
2022-10-13T20:18:24.883Z,99518.09
2022-10-13T20:20:51.618Z,99515.59
2022-10-13T20:23:18.041Z,99520.34
2022-10-13T20:25:45.041Z,99518.03
2022-10-13T20:28:11.679Z,99519.88
2022-10-13T20:30:40.621Z,99516.75
2022-10-13T20:33:07.308Z,99518.59
2022-10-13T20:35:33.829Z,99525.81
2022-10-13T20:38:00.492Z,99519.63
2022-10-13T20:40:30.840Z,99526.84
2022-10-13T20:42:58.294Z,99524.56
2022-10-13T20:45:25.995Z,99531.13
2022-10-13T20:47:52.831Z,99528.63
2022-10-13T20:50:19.462Z,99526.97
2022-10-13T20:52:48.244Z,99518.28
2022-10-13T20:55:14.847Z,99515.00
2022-10-13T20:57:41.274Z,99516.09
2022-10-13T21:00:10.041Z,99514.22
2022-10-13T21:02:38.038Z,99503.88
2022-10-13T21:05:04.810Z,99504.28
2022-10-13T21:07:31.395Z,99509.19
2022-10-13T21:09:57.865Z,99499.69
2022-10-13T21:12:24.427Z,99500.47
2022-10-13T21:14:52.434Z,99498.34
2022-10-13T21:17:21.823Z,99500.41
2022-10-13T21:19:48.966Z,99503.25
2022-10-13T21:22:15.977Z,99498.09
2022-10-13T21:24:42.623Z,99496.44
2022-10-13T21:27:09.236Z,99487.94
2022-10-13T21:29:35.614Z,99494.50
2022-10-13T21:32:02.208Z,99494.13
2022-10-13T21:34:31.139Z,99494.78
2022-10-13T21:36:57.685Z,99499.50
2022-10-13T21:39:24.539Z,99493.91
2022-10-13T21:41:51.216Z,99494.72
2022-10-13T21:44:18.566Z,99491.66
2022-10-13T21:46:45.267Z,99493.91
2022-10-13T21:49:11.915Z,99486.25
2022-10-13T21:51:40.163Z,99488.09
2022-10-13T21:54:13.475Z,99486.41
2022-10-13T21:56:41.626Z,99487.25
2022-10-13T21:59:11.099Z,99488.47
2022-10-13T22:01:37.488Z,99487.84
2022-10-13T22:04:05.042Z,99493.38
2022-10-13T22:06:32.561Z,99487.56
2022-10-13T22:09:00.865Z,99486.94
2022-10-13T22:11:31.813Z,99495.97
2022-10-13T22:14:00.382Z,99488.97
2022-10-13T22:16:36.215Z,99488.28
2022-10-13T22:19:02.791Z,99491.34
2022-10-13T22:21:33.713Z,99498.94
2022-10-13T22:24:03.728Z,99494.16
2022-10-13T22:26:32.441Z,99496.19
2022-10-13T22:29:00.905Z,99490.41
2022-10-13T22:31:28.204Z,99500.66
2022-10-13T22:33:55.609Z,99499.94
2022-10-13T22:36:23.481Z,99501.97
2022-10-13T22:38:51.631Z,99502.78
2022-10-13T22:41:19.394Z,99492.94
2022-10-13T22:43:50.466Z,99491.69
2022-10-13T22:46:21.063Z,99492.34
2022-10-13T22:48:48.169Z,99493.00
2022-10-13T22:51:20.459Z,99491.97
2022-10-13T22:53:48.534Z,99490.31
2022-10-13T22:56:26.467Z,99493.44
2022-10-13T22:58:58.808Z,99491.59
2022-10-13T23:01:26.441Z,99486.91
2022-10-13T23:03:55.764Z,99486.25
2022-10-13T23:06:24.833Z,99482.53
2022-10-13T23:08:53.403Z,99482.53
2022-10-13T23:11:20.348Z,99480.06
2022-10-13T23:13:47.597Z,99478.22
2022-10-13T23:16:20.412Z,99482.53
2022-10-13T23:18:47.657Z,99475.53
2022-10-13T23:21:18.526Z,99475.81
2022-10-13T23:23:45.525Z,99475.81
2022-10-13T23:26:14.551Z,99482.16
2022-10-13T23:28:41.602Z,99478.88
2022-10-13T23:31:12.322Z,99482.16
2022-10-13T23:33:39.066Z,99476.19
2022-10-13T23:36:06.717Z,99474.78
2022-10-13T23:38:33.806Z,99479.97
2022-10-13T23:41:12.316Z,99469.63
2022-10-13T23:43:39.148Z,99475.81
2022-10-13T23:46:07.718Z,99478.09
2022-10-13T23:48:34.289Z,99478.09
2022-10-13T23:51:10.027Z,99475.44
2022-10-13T23:53:39.091Z,99480.13
2022-10-13T23:56:08.184Z,99477.28
2022-10-13T23:58:40.560Z,99473.13
